createdAt,value
2019-01-08T00:03:42.977Z,100456.60
2019-01-08T00:06:08.834Z,100446.16
2019-01-08T00:08:34.737Z,100442.73
2019-01-08T00:11:00.649Z,100439.72
2019-01-08T00:13:26.522Z,100440.55
2019-01-08T00:15:52.429Z,100436.84
2019-01-08T00:18:18.305Z,100438.03
2019-01-08T00:20:44.214Z,100439.47
2019-01-08T00:23:10.094Z,100434.99
2019-01-08T00:25:35.991Z,100435.03
2019-01-08T00:28:01.868Z,100438.81
2019-01-08T00:30:27.776Z,100445.42
2019-01-08T00:32:53.678Z,100440.19
2019-01-08T00:35:19.584Z,100418.44
2019-01-08T00:37:45.459Z,100412.52
2019-01-08T00:40:11.372Z,100415.23
2019-01-08T00:42:37.290Z,100427.86
2019-01-08T00:45:03.198Z,100435.72
2019-01-08T00:47:29.126Z,100404.77
2019-01-08T00:49:54.997Z,100406.00
2019-01-08T00:52:20.905Z,100408.88
2019-01-08T00:54:46.790Z,100384.83
2019-01-08T00:57:12.694Z,100392.50
2019-01-08T00:59:38.552Z,100380.71
2019-01-08T01:02:04.484Z,100386.32
2019-01-08T01:04:30.410Z,100382.61
2019-01-08T01:06:56.285Z,100384.45
2019-01-08T01:09:22.266Z,100380.06
2019-01-08T01:11:48.136Z,100378.75
2019-01-08T01:16:59.640Z,100371.86
2019-01-08T01:19:25.534Z,100366.70
2019-01-08T01:21:51.450Z,100352.27
2019-01-08T01:24:17.332Z,100355.13
2019-01-08T01:26:43.231Z,100349.75
2019-01-08T01:29:09.117Z,100344.96
2019-01-08T01:31:35.019Z,100353.22
2019-01-08T01:34:00.897Z,100348.42
2019-01-08T01:36:26.813Z,100337.80
2019-01-08T01:38:52.685Z,100336.38
2019-01-08T01:41:18.594Z,100336.74
2019-01-08T01:43:44.463Z,100328.36
2019-01-08T01:46:10.428Z,100328.45
2019-01-08T01:48:36.288Z,100318.80
2019-01-08T01:51:02.138Z,100319.31
2019-01-08T01:53:28.042Z,100329.40
2019-01-08T01:55:53.920Z,100318.31
2019-01-08T01:58:19.763Z,100316.16
2019-01-08T02:00:45.687Z,100323.84
2019-01-08T02:03:11.586Z,100320.78
2019-01-08T02:05:37.446Z,100321.97
2019-01-08T02:08:03.354Z,100313.40
2019-01-08T02:10:29.320Z,100321.05
2019-01-08T02:15:42.636Z,100303.09
2019-01-08T02:18:08.542Z,100293.71
2019-01-08T02:20:34.449Z,100292.88
2019-01-08T02:23:00.368Z,100280.77
2019-01-08T02:25:26.236Z,100278.18
2019-01-08T02:27:52.149Z,100266.68
2019-01-08T02:30:18.031Z,100270.80
2019-01-08T02:32:43.940Z,100262.86
2019-01-08T02:35:09.874Z,100257.16
2019-01-08T02:37:35.781Z,100254.97
2019-01-08T02:40:01.682Z,100249.66
2019-01-08T02:42:27.577Z,100241.17
2019-01-08T02:44:53.488Z,100237.84
2019-01-08T02:47:19.421Z,100239.03
2019-01-08T02:49:45.317Z,100234.36
2019-01-08T02:52:11.202Z,100220.98
2019-01-08T02:54:37.135Z,100212.28
2019-01-08T02:57:03.037Z,100199.48
2019-01-08T02:59:28.903Z,100207.93
2019-01-08T03:01:54.813Z,100201.55
2019-01-08T03:07:06.347Z,100192.62
2019-01-08T03:12:19.688Z,100174.41
2019-01-08T03:14:45.558Z,100173.05
2019-01-08T03:17:11.470Z,100155.77
2019-01-08T03:19:57.232Z,100160.00
2019-01-08T03:22:23.126Z,100150.23
2019-01-08T03:24:49.035Z,100150.70
2019-01-08T03:27:14.900Z,100147.73
2019-01-08T03:29:40.800Z,100146.47
2019-01-08T03:32:06.668Z,100141.28
2019-01-08T03:34:32.592Z,100146.17
2019-01-08T03:36:58.490Z,100127.58
2019-01-08T03:39:24.370Z,100124.17
2019-01-08T03:41:50.263Z,100116.61
2019-01-08T03:44:36.052Z,100121.84
2019-01-08T03:47:01.963Z,100117.78
2019-01-08T03:49:27.843Z,100098.16
2019-01-08T03:51:53.749Z,100078.47
2019-01-08T03:54:19.692Z,100074.66
2019-01-08T03:56:45.595Z,100070.31
2019-01-08T03:59:11.458Z,100072.78
2019-01-08T04:04:09.734Z,100059.64
2019-01-08T04:06:35.597Z,100053.55
2019-01-08T04:09:01.492Z,100043.75
2019-01-08T04:11:27.439Z,100038.97
2019-01-08T04:13:53.308Z,100058.58
2019-01-08T04:16:19.181Z,100027.45
2019-01-08T04:18:45.080Z,100020.50
2019-01-08T04:21:10.955Z,100001.23
2019-01-08T04:23:36.875Z,100007.16
2019-01-08T04:26:02.761Z,99999.73
2019-01-08T04:28:28.665Z,100006.42
2019-01-08T04:30:54.564Z,100017.08
2019-01-08T04:33:20.439Z,100010.66
2019-01-08T04:35:46.310Z,100014.36
2019-01-08T04:40:54.383Z,100015.58
2019-01-08T04:43:20.245Z,99999.00
2019-01-08T04:45:46.170Z,99993.96
2019-01-08T04:48:12.035Z,99980.40
2019-01-08T04:50:37.960Z,99966.47
2019-01-08T04:53:03.839Z,99978.00
2019-01-08T04:55:29.758Z,99959.98
2019-01-08T04:57:55.631Z,99966.59
2019-01-08T05:00:21.552Z,99950.23
2019-01-08T05:02:47.424Z,99929.23
2019-01-08T05:05:13.326Z,99929.73
2019-01-08T05:07:39.239Z,99926.70
2019-01-08T05:10:05.138Z,99922.98
2019-01-08T05:12:31.041Z,99894.80
2019-01-08T05:14:56.896Z,99898.16
2019-01-08T05:17:22.809Z,99895.44
2019-01-08T05:19:48.676Z,99884.84
2019-01-08T05:22:14.556Z,99885.88
2019-01-08T05:24:40.454Z,99880.19
2019-01-08T05:27:06.342Z,99876.84
2019-01-08T05:29:32.240Z,99872.83
2019-01-08T05:31:58.136Z,99869.05
2019-01-08T05:34:24.021Z,99865.49
2019-01-08T05:36:49.931Z,99858.03
2019-01-08T05:39:15.826Z,99864.58
2019-01-08T05:41:41.745Z,99857.73
2019-01-08T05:44:07.637Z,99847.59
2019-01-08T05:46:33.584Z,99841.45
2019-01-08T05:48:59.461Z,99835.30
2019-01-08T05:51:25.363Z,99847.22
2019-01-08T05:53:51.283Z,99824.84
2019-01-08T05:56:17.147Z,99819.04
2019-01-08T05:58:43.015Z,99819.61
2019-01-08T06:01:08.932Z,99819.30
2019-01-08T06:03:34.807Z,99810.08
2019-01-08T06:06:00.732Z,99802.84
2019-01-08T06:08:26.594Z,99796.52
2019-01-08T06:10:52.544Z,99802.61
2019-01-08T06:13:18.410Z,99783.10
2019-01-08T06:15:44.279Z,99780.83
2019-01-08T06:18:10.195Z,99775.28
2019-01-08T06:20:36.108Z,99762.84
2019-01-08T06:23:01.974Z,99767.63
2019-01-08T06:25:27.870Z,99766.77
2019-01-08T06:27:53.796Z,99763.80
2019-01-08T06:30:24.753Z,99751.45
2019-01-08T06:32:47.492Z,99752.90
2019-01-08T06:35:13.382Z,99718.44
2019-01-08T06:37:39.288Z,99714.95
2019-01-08T06:40:46.780Z,99735.05
2019-01-08T06:43:12.722Z,99720.66
2019-01-08T06:45:38.620Z,99735.73
2019-01-08T06:48:04.556Z,99738.51
2019-01-08T06:50:30.424Z,99716.84
2019-01-08T06:52:56.402Z,99716.25
2019-01-08T06:55:22.307Z,99721.01
2019-01-08T06:57:48.184Z,99720.14
2019-01-08T07:00:14.093Z,99715.61
2019-01-08T07:02:39.967Z,99703.89
2019-01-08T07:05:05.877Z,99701.22
2019-01-08T07:07:31.736Z,99703.98
2019-01-08T07:09:57.670Z,99702.27
2019-01-08T07:12:23.541Z,99704.58
2019-01-08T07:14:49.439Z,99696.52
2019-01-08T07:17:15.309Z,99697.52
2019-01-08T07:22:33.897Z,99703.79
2019-01-08T07:24:59.837Z,99693.21
2019-01-08T07:27:25.707Z,99688.83
2019-01-08T07:29:51.582Z,99689.07
2019-01-08T07:32:17.479Z,99687.69
2019-01-08T07:34:43.384Z,99684.11
2019-01-08T07:37:09.293Z,99657.08
2019-01-08T07:39:35.164Z,99667.39
2019-01-08T07:42:01.096Z,99650.09
2019-01-08T07:44:26.972Z,99654.36
2019-01-08T07:46:52.882Z,99641.00
2019-01-08T07:49:18.744Z,99649.97
2019-01-08T07:51:44.638Z,99643.37
2019-01-08T07:54:10.528Z,99640.60
2019-01-08T07:56:36.384Z,99633.10
2019-01-08T07:59:02.318Z,99618.38
2019-01-08T08:01:28.189Z,99609.77
2019-01-08T08:03:54.100Z,99607.50
2019-01-08T08:06:19.973Z,99606.45
2019-01-08T08:08:45.893Z,99623.55
2019-01-08T08:11:11.801Z,99608.21
2019-01-08T08:13:37.711Z,99630.64
2019-01-08T08:16:03.584Z,99621.54
2019-01-08T08:18:29.498Z,99585.28
2019-01-08T08:20:55.405Z,99598.55
2019-01-08T08:23:21.310Z,99609.95
2019-01-08T08:25:47.217Z,99603.03
2019-01-08T08:28:13.088Z,99592.39
2019-01-08T08:30:38.989Z,99606.62
2019-01-08T08:33:04.890Z,99597.62
2019-01-08T08:35:30.787Z,99604.39
2019-01-08T08:37:56.654Z,99608.25
2019-01-08T08:40:22.555Z,99573.25
2019-01-08T08:42:48.439Z,99595.58
2019-01-08T08:45:14.343Z,99586.87
2019-01-08T08:47:40.264Z,99581.02
2019-01-08T08:50:06.137Z,99582.17
2019-01-08T08:52:32.051Z,99559.56
2019-01-08T08:54:58.027Z,99556.59
2019-01-08T08:57:23.925Z,99575.11
2019-01-08T08:59:49.787Z,99551.41
2019-01-08T09:02:15.952Z,99556.11
2019-01-08T09:04:43.530Z,99538.73
2019-01-08T09:07:09.409Z,99527.71
2019-01-08T09:09:55.770Z,99530.43
2019-01-08T09:12:21.682Z,99540.58
2019-01-08T09:14:47.583Z,99523.51
2019-01-08T09:17:13.459Z,99491.03
2019-01-08T09:19:39.361Z,99550.22
2019-01-08T09:22:05.244Z,99507.22
2019-01-08T09:24:51.120Z,99499.38
2019-01-08T09:27:17.033Z,99501.60
2019-01-08T09:29:42.933Z,99495.17
2019-01-08T09:32:08.801Z,99505.37
2019-01-08T09:34:34.730Z,99513.98
2019-01-08T09:37:00.601Z,99502.95
2019-01-08T09:39:26.487Z,99502.12
2019-01-08T09:41:52.386Z,99507.69
2019-01-08T09:44:18.251Z,99501.20
2019-01-08T09:46:44.200Z,99507.35
2019-01-08T09:49:10.080Z,99503.88
2019-01-08T09:51:35.976Z,99525.75
2019-01-08T09:54:01.851Z,99552.50
2019-01-08T09:56:27.746Z,99535.52
2019-01-08T09:58:53.659Z,99543.36
2019-01-08T10:01:23.989Z,99533.14
2019-01-08T10:03:47.393Z,99527.91
2019-01-08T10:06:13.292Z,99526.77
2019-01-08T10:08:39.169Z,99555.12
2019-01-08T10:11:05.111Z,99528.30
2019-01-08T10:13:50.901Z,99512.67
2019-01-08T10:16:16.857Z,99512.67
2019-01-08T10:18:42.867Z,99509.54
2019-01-08T10:21:08.751Z,99519.03
2019-01-08T10:23:34.651Z,99504.50
2019-01-08T10:26:00.529Z,99496.13
2019-01-08T10:28:26.425Z,99508.13
2019-01-08T10:30:52.330Z,99502.66
2019-01-08T10:33:18.208Z,99499.38
2019-01-08T10:35:44.120Z,99507.20
2019-01-08T10:38:10.035Z,99491.42
2019-01-08T10:40:35.914Z,99478.46
2019-01-08T10:43:01.864Z,99490.72
2019-01-08T10:45:27.739Z,99477.84
2019-01-08T10:47:53.641Z,99484.22
2019-01-08T10:50:19.572Z,99478.57
2019-01-08T10:52:45.436Z,99468.16
2019-01-08T10:55:11.364Z,99472.11
2019-01-08T10:57:37.277Z,99466.78
2019-01-08T11:00:44.824Z,99457.78
2019-01-08T11:03:10.736Z,99456.41
2019-01-08T11:05:36.636Z,99458.88
2019-01-08T11:08:02.520Z,99461.86
2019-01-08T11:10:28.460Z,99447.41
2019-01-08T11:12:54.344Z,99449.44
2019-01-08T11:15:20.206Z,99453.70
2019-01-08T11:17:46.116Z,99439.08
2019-01-08T11:20:11.989Z,99438.81
2019-01-08T11:22:37.899Z,99453.63
2019-01-08T11:28:17.790Z,99442.38
2019-01-08T11:30:43.665Z,99444.45
2019-01-08T11:33:09.532Z,99447.46
2019-01-08T11:35:42.161Z,99447.48
2019-01-08T11:38:03.277Z,99434.86
2019-01-08T11:40:29.141Z,99433.56
2019-01-08T11:42:55.050Z,99494.77
2019-01-08T11:45:20.925Z,99446.42
2019-01-08T11:47:46.817Z,99451.92
2019-01-08T11:50:12.717Z,99461.00
2019-01-08T11:52:38.590Z,99454.93
2019-01-08T11:55:04.481Z,99456.36
2019-01-08T11:57:30.339Z,99465.25
2019-01-08T12:02:28.467Z,99461.71
2019-01-08T12:04:54.353Z,99465.79
2019-01-08T12:07:20.259Z,99469.41
2019-01-08T12:09:46.141Z,99465.03
2019-01-08T12:12:12.082Z,99466.06
2019-01-08T12:14:37.964Z,99474.35
2019-01-08T12:17:03.871Z,99457.83
2019-01-08T12:19:29.751Z,99468.42
2019-01-08T12:21:55.646Z,99467.64
2019-01-08T12:24:21.530Z,99465.86
2019-01-08T12:26:47.424Z,99465.56
2019-01-08T12:29:13.312Z,99462.58
2019-01-08T12:31:39.226Z,99480.02
2019-01-08T12:34:05.142Z,99463.88
2019-01-08T12:36:31.008Z,99481.38
2019-01-08T12:38:56.909Z,99462.71
2019-01-08T12:41:22.822Z,99464.81
2019-01-08T12:43:48.738Z,99457.19
2019-01-08T12:46:14.647Z,99459.86
2019-01-08T12:48:40.517Z,99463.40
2019-01-08T12:51:06.435Z,99470.80
2019-01-08T12:53:32.301Z,99464.03
2019-01-08T12:55:58.211Z,99458.56
2019-01-08T12:58:24.080Z,99472.23
2019-01-08T13:03:24.032Z,99473.58
2019-01-08T13:05:49.894Z,99469.36
2019-01-08T13:08:15.784Z,99470.65
2019-01-08T13:10:41.691Z,99470.19
2019-01-08T13:13:07.563Z,99471.75
2019-01-08T13:15:33.483Z,99469.83
2019-01-08T13:17:59.393Z,99504.33
2019-01-08T13:20:25.307Z,99485.14
2019-01-08T13:22:51.219Z,99501.72
2019-01-08T13:25:17.090Z,99494.47
2019-01-08T13:27:42.998Z,99486.36
2019-01-08T13:30:08.882Z,99499.94
2019-01-08T13:32:34.790Z,99493.03
2019-01-08T13:35:00.668Z,99493.73
2019-01-08T13:37:26.558Z,99486.83
2019-01-08T13:39:52.432Z,99457.77
2019-01-08T13:42:18.351Z,99469.58
2019-01-08T13:44:44.231Z,99472.05
2019-01-08T13:47:10.101Z,99472.20
2019-01-08T13:49:36.008Z,99474.20
2019-01-08T13:52:01.866Z,99495.93
2019-01-08T13:54:27.770Z,99505.80
2019-01-08T13:56:53.647Z,99492.02
2019-01-08T13:59:19.563Z,99505.58
2019-01-08T14:01:45.534Z,99516.88
2019-01-08T14:04:11.392Z,99507.55
2019-01-08T14:06:37.292Z,99502.16
2019-01-08T14:09:44.841Z,99486.19
2019-01-08T14:12:10.738Z,99493.84
2019-01-08T14:14:36.656Z,99496.81
2019-01-08T14:17:09.709Z,99490.75
2019-01-08T14:19:35.618Z,99525.38
2019-01-08T14:22:01.515Z,99508.22
2019-01-08T14:24:27.441Z,99504.31
2019-01-08T14:29:27.117Z,99491.05
2019-01-08T14:31:53.025Z,99491.48
2019-01-08T14:34:18.896Z,99504.89
2019-01-08T14:39:16.827Z,99524.15
2019-01-08T14:41:42.725Z,99514.33
2019-01-08T14:44:08.601Z,99509.39
2019-01-08T14:46:34.525Z,99526.03
2019-01-08T14:49:00.387Z,99500.88
2019-01-08T14:51:26.297Z,99498.83
2019-01-08T14:53:52.168Z,99510.98
2019-01-08T14:56:18.099Z,99505.23
2019-01-08T14:58:44.002Z,99502.86
2019-01-08T15:01:09.871Z,99503.72
2019-01-08T15:03:35.791Z,99496.33
2019-01-08T15:06:01.690Z,99497.92
2019-01-08T15:08:27.703Z,99505.50
2019-01-08T15:10:53.592Z,99505.86
2019-01-08T15:13:19.470Z,99500.30
2019-01-08T15:15:45.376Z,99508.66
2019-01-08T15:18:11.262Z,99525.06
2019-01-08T15:20:38.959Z,99523.73
2019-01-08T15:23:05.005Z,99496.08
2019-01-08T15:25:30.946Z,99507.64
2019-01-08T15:27:56.820Z,99501.72
2019-01-08T15:33:14.309Z,99520.13
2019-01-08T15:35:40.395Z,99526.66
2019-01-08T15:38:06.274Z,99529.47
2019-01-08T15:40:32.129Z,99533.61
2019-01-08T15:42:58.032Z,99523.55
2019-01-08T15:48:11.331Z,99541.47
2019-01-08T15:50:37.203Z,99539.20
2019-01-08T15:53:03.098Z,99527.23
2019-01-08T15:55:28.986Z,99532.20
2019-01-08T15:57:54.891Z,99535.38
2019-01-08T16:00:20.754Z,99535.47
2019-01-08T16:02:46.678Z,99531.25
2019-01-08T16:05:12.589Z,99537.95
2019-01-08T16:07:38.469Z,99559.91
2019-01-08T16:10:45.989Z,99548.03
2019-01-08T16:13:11.902Z,99545.30
2019-01-08T16:15:37.815Z,99558.09
2019-01-08T16:18:03.706Z,99566.45
2019-01-08T16:20:29.614Z,99558.27
2019-01-08T16:22:55.483Z,99569.42
2019-01-08T16:25:21.393Z,99568.81
2019-01-08T16:27:47.271Z,99576.92
2019-01-08T16:30:13.193Z,99578.40
2019-01-08T16:32:39.052Z,99604.52
2019-01-08T16:35:04.929Z,99590.17
2019-01-08T16:37:30.820Z,99591.27
2019-01-08T16:39:56.729Z,99593.09
2019-01-08T16:42:22.782Z,99590.08
2019-01-08T16:44:50.456Z,99585.35
2019-01-08T16:47:16.354Z,99588.97
2019-01-08T16:49:42.242Z,99604.83
2019-01-08T16:52:08.144Z,99601.16
2019-01-08T16:54:34.014Z,99596.56
2019-01-08T16:56:59.918Z,99603.21
2019-01-08T16:59:25.814Z,99591.98
2019-01-08T17:01:51.716Z,99598.26
2019-01-08T17:04:17.644Z,99602.77
2019-01-08T17:06:43.568Z,99604.08
2019-01-08T17:09:09.474Z,99603.03
2019-01-08T17:11:35.426Z,99605.83
2019-01-08T17:14:01.352Z,99614.69
2019-01-08T17:16:27.214Z,99619.41
2019-01-08T17:18:53.154Z,99615.28
2019-01-08T17:21:19.036Z,99619.11
2019-01-08T17:23:44.945Z,99612.77
2019-01-08T17:26:10.804Z,99617.16
2019-01-08T17:28:36.709Z,99605.45
2019-01-08T17:31:02.626Z,99615.58
2019-01-08T17:33:33.690Z,99617.05
2019-01-08T17:35:56.382Z,99626.20
2019-01-08T17:38:22.268Z,99612.52
2019-01-08T17:40:48.218Z,99625.31
2019-01-08T17:43:14.094Z,99631.20
2019-01-08T17:45:39.970Z,99632.84
2019-01-08T17:48:05.887Z,99636.39
2019-01-08T17:50:31.767Z,99639.07
2019-01-08T17:52:57.679Z,99641.81
2019-01-08T17:55:23.557Z,99647.98
2019-01-08T17:57:49.461Z,99653.76
2019-01-08T18:00:15.339Z,99645.66
2019-01-08T18:03:22.875Z,99654.75
2019-01-08T18:05:48.777Z,99649.59
2019-01-08T18:08:14.687Z,99657.69
2019-01-08T18:10:40.559Z,99664.75
2019-01-08T18:13:06.472Z,99683.30
2019-01-08T18:15:32.324Z,99654.33
2019-01-08T18:17:58.250Z,99654.64
2019-01-08T18:20:24.115Z,99656.75
2019-01-08T18:22:50.034Z,99647.38
2019-01-08T18:25:15.902Z,99661.09
2019-01-08T18:27:41.816Z,99657.48
2019-01-08T18:30:07.686Z,99665.16
2019-01-08T18:32:33.604Z,99654.33
2019-01-08T18:34:59.512Z,99661.45
2019-01-08T18:37:25.382Z,99665.08
2019-01-08T18:39:51.285Z,99680.97
2019-01-08T18:42:17.160Z,99679.15
2019-01-08T18:44:43.067Z,99670.92
2019-01-08T18:47:08.943Z,99666.30
2019-01-08T18:49:34.860Z,99674.20
2019-01-08T18:52:00.768Z,99672.86
2019-01-08T18:54:28.144Z,99677.72
2019-01-08T18:56:54.489Z,99685.58
2019-01-08T18:59:20.362Z,99697.09
2019-01-08T19:01:46.294Z,99685.62
2019-01-08T19:04:12.205Z,99695.89
2019-01-08T19:06:38.163Z,99694.44
2019-01-08T19:12:17.511Z,99697.94
2019-01-08T19:14:43.387Z,99691.36
2019-01-08T19:17:09.303Z,99695.16
2019-01-08T19:19:35.218Z,99698.98
2019-01-08T19:22:01.090Z,99700.69
2019-01-08T19:24:27.099Z,99702.80
2019-01-08T19:26:52.967Z,99702.98
2019-01-08T19:29:18.875Z,99708.27
2019-01-08T19:31:44.746Z,99684.30
2019-01-08T19:34:10.656Z,99692.83
2019-01-08T19:36:36.678Z,99697.38
2019-01-08T19:39:44.222Z,99688.91
2019-01-08T19:42:10.156Z,99679.63
2019-01-08T19:44:36.051Z,99701.63
2019-01-08T19:47:01.990Z,99694.63
2019-01-08T19:49:27.850Z,99685.20
2019-01-08T19:51:53.728Z,99689.73
2019-01-08T19:54:19.645Z,99693.47
2019-01-08T19:56:45.563Z,99698.92
2019-01-08T19:59:11.541Z,99701.55
2019-01-08T20:01:37.447Z,99705.59
2019-01-08T20:04:03.676Z,99700.38
2019-01-08T20:06:31.246Z,99690.36
2019-01-08T20:08:57.151Z,99712.21
2019-01-08T20:11:23.052Z,99704.96
2019-01-08T20:13:48.952Z,99717.76
2019-01-08T20:16:14.834Z,99696.86
2019-01-08T20:18:45.172Z,99687.81
2019-01-08T20:21:08.579Z,99700.91
2019-01-08T20:23:34.486Z,99703.05
2019-01-08T20:26:00.365Z,99709.03
2019-01-08T20:28:26.269Z,99696.97
2019-01-08T20:30:52.151Z,99697.95
2019-01-08T20:33:18.073Z,99701.16
2019-01-08T20:35:43.953Z,99714.81
2019-01-08T20:38:09.823Z,99720.75
2019-01-08T20:40:35.747Z,99706.05
2019-01-08T20:43:01.623Z,99702.25
2019-01-08T20:45:27.540Z,99708.20
2019-01-08T20:47:53.418Z,99711.55
2019-01-08T20:50:19.361Z,99707.47
2019-01-08T20:52:45.241Z,99704.80
2019-01-08T20:55:11.178Z,99708.62
2019-01-08T20:57:37.027Z,99712.42
2019-01-08T21:00:44.578Z,99694.91
2019-01-08T21:03:10.491Z,99713.88
2019-01-08T21:05:36.362Z,99697.12
2019-01-08T21:08:02.271Z,99713.08
2019-01-08T21:10:28.191Z,99713.88
2019-01-08T21:12:54.060Z,99712.78
2019-01-08T21:15:19.972Z,99730.21
2019-01-08T21:17:45.897Z,99714.42
2019-01-08T21:20:11.785Z,99749.20
2019-01-08T21:22:37.696Z,99745.98
2019-01-08T21:25:03.610Z,99767.03
2019-01-08T21:27:29.516Z,99757.95
2019-01-08T21:29:55.417Z,99745.19
2019-01-08T21:32:21.326Z,99745.97
2019-01-08T21:34:47.210Z,99759.84
2019-01-08T21:37:13.111Z,99744.72
2019-01-08T21:39:39.014Z,99740.08
2019-01-08T21:42:04.874Z,99746.98
2019-01-08T21:44:30.784Z,99751.25
2019-01-08T21:46:56.686Z,99764.59
2019-01-08T21:49:22.583Z,99763.16
2019-01-08T21:51:48.493Z,99762.20
2019-01-08T21:54:14.366Z,99766.20
2019-01-08T21:56:40.377Z,99772.42
2019-01-08T21:59:06.243Z,99775.00
2019-01-08T22:01:32.170Z,99767.66
2019-01-08T22:03:58.037Z,99777.20
2019-01-08T22:06:23.965Z,99784.66
2019-01-08T22:08:49.849Z,99785.03
2019-01-08T22:11:15.743Z,99785.36
2019-01-08T22:13:41.608Z,99779.77
2019-01-08T22:16:07.513Z,99815.34
2019-01-08T22:18:33.372Z,99787.64
2019-01-08T22:20:59.291Z,99791.58
2019-01-08T22:23:25.197Z,99796.43
2019-01-08T22:25:51.092Z,99807.85
2019-01-08T22:28:16.977Z,99791.17
2019-01-08T22:30:42.879Z,99798.05
2019-01-08T22:36:22.170Z,99790.74
2019-01-08T22:38:48.075Z,99806.70
2019-01-08T22:41:13.989Z,99800.48
2019-01-08T22:43:39.824Z,99794.47
2019-01-08T22:46:05.724Z,99808.58
2019-01-08T22:48:31.596Z,99835.36
2019-01-08T22:50:57.496Z,99801.72
2019-01-08T22:53:23.373Z,99806.95
2019-01-08T22:55:49.287Z,99810.53
2019-01-08T22:58:15.185Z,99808.26
2019-01-08T23:01:01.063Z,99809.75
2019-01-08T23:03:27.067Z,99802.66
2019-01-08T23:05:53.021Z,99799.35
2019-01-08T23:08:18.927Z,99815.73
2019-01-08T23:13:32.314Z,99815.22
2019-01-08T23:15:58.228Z,99814.84
2019-01-08T23:18:24.133Z,99812.38
2019-01-08T23:20:50.049Z,99818.80
2019-01-08T23:23:15.955Z,99821.03
2019-01-08T23:25:41.826Z,99822.59
2019-01-08T23:28:07.759Z,99825.77
2019-01-08T23:30:33.623Z,99825.85
2019-01-08T23:32:59.483Z,99823.50
2019-01-08T23:35:25.399Z,99823.45
2019-01-08T23:37:51.266Z,99825.21
2019-01-08T23:40:17.169Z,99830.97
2019-01-08T23:42:43.041Z,99840.30
2019-01-08T23:45:08.983Z,99820.42
2019-01-08T23:47:34.810Z,99822.09
2019-01-08T23:50:00.713Z,99824.31
2019-01-08T23:53:08.253Z,99826.92
2019-01-08T23:58:34.643Z,99838.73
